Flight Track Log - Related Links

Times and Time Zones

All times are in EDT time to prevent confusion due to time zone crossing. See the N885WT flight status page for this flight to view local times or setup timezone preferences in your user account.

Time Position Orientation Groundspeed Altitude Reporting Facility
EDT Latitude Longitude Course Direction KTS MPH feet Rate Location/Type
Thu 04:02:16 PM 47.5136 -122.2867 147° Southeast 154 177 1,200  Level Seattle Center
Thu 04:03:07 PM 47.4756 -122.2503 147° Southeast 188 216 3,100 2,658 Climbing Seattle Center
Thu 04:03:35 PM 47.4661 -122.2047 107° East 252 290 4,700 3,836 Climbing Seattle Center
Thu 04:04:08 PM 47.4631 -122.1489 95° East 253 291 7,000 3,957 Climbing Seattle Center
Thu 04:05:09 PM 47.4542 -122.0353 97° East 277 319 10,900 2,557 Climbing Seattle Center
Thu 04:06:10 PM 47.4433 -121.8961 97° East 352 405 12,200 2,361 Climbing Seattle Center
Thu 04:07:11 PM 47.4311 -121.7339 96° East 396 456 15,700 3,197 Climbing Seattle Center
Thu 04:08:12 PM 47.4269 -121.5906 92° East 392 451 18,700 2,607 Climbing Seattle Center
Thu 04:09:13 PM 47.4247 -121.4183 91° East 421 484 21,000 2,705 Climbing Seattle Center
Thu 04:10:14 PM 47.4194 -121.2019 92° East 443 510 24,200 2,902 Climbing Seattle Center
Thu 04:11:15 PM 47.4164 -121.0150 91° East 456 525 26,900 2,410 Climbing Seattle Center
Thu 04:12:16 PM 47.4131 -120.8219 91° East 466 536 29,100 1,918 Climbing Seattle Center
Thu 04:13:17 PM 47.4089 -120.6458 92° East 484 557 30,800 1,623 Climbing Seattle Center
Thu 04:14:18 PM 47.4039 -120.4408 92° East 500 575 32,400 2,213 Climbing Seattle Center
Thu 04:15:19 PM 47.3667 -120.1958 103° East 510 587 35,300 2,311 Climbing Seattle Center
Thu 04:16:20 PM 47.3319 -120.0003 105° East 499 574 37,100 1,623 Climbing Seattle Center
Thu 04:17:21 PM 47.2969 -119.8017 104° East 502 578 38,600 1,475 Climbing Seattle Center
Thu 04:18:22 PM 47.2614 -119.6036 105° East 502 578 40,100 1,180 Climbing Seattle Center
Thu 04:19:23 PM 47.2264 -119.4078 105° East 498 573 41,000 443 Climbing Seattle Center
Thu 04:20:24 PM 47.2019 -119.1981 100° East 519 597 41,000  Level Seattle Center
Thu 04:21:25 PM 47.1917 -118.9861 94° East 524 603 41,000  Level Seattle Center
Thu 04:22:26 PM 47.1803 -118.7769 95° East 518 596 41,000  Level Seattle Center
Thu 04:23:27 PM 47.1692 -118.5656 94° East 520 598 41,000  Level Seattle Center
Thu 04:24:28 PM 47.1572 -118.3550 95° East 522 601 41,000  Level Seattle Center
Thu 04:25:29 PM 47.1447 -118.1433 95° East 521 600 41,000  Level Seattle Center
Thu 04:26:30 PM 47.1300 -117.8919 95° East 519 597 41,000  Level Seattle Center
Thu 04:27:31 PM 47.1175 -117.6828 95° East 520 598 41,000  Level Seattle Center
Thu 04:28:32 PM 47.1039 -117.4753 95° East 517 595 41,000  Level Seattle Center
Thu 04:29:33 PM 47.0900 -117.2661 95° East 520 598 41,000  Level Seattle Center
Thu 04:30:34 PM 47.0772 -117.0583 95° East 519 597 41,000  Level Seattle Center
Thu 04:31:35 PM 47.0633 -116.8514 96° East 517 595 41,000  Level Seattle Center
Thu 04:32:36 PM 47.0475 -116.6436 96° East 517 595 41,000  Level Seattle Center
Thu 04:33:37 PM 47.0319 -116.4364 96° East 516 594 41,000  Level Seattle Center
Thu 04:34:39 PM 47.0131 -116.1867 96° East 517 595 41,000  Level Seattle Center
Thu 04:35:40 PM 46.9969 -115.9797 96° East 514 592 41,000  Level Seattle Center
Thu 04:36:41 PM 46.9808 -115.7711 96° East 517 595 41,000  Level Seattle Center
Thu 04:37:42 PM 46.9631 -115.5628 97° East 518 596 41,000  Level Seattle Center
Thu 04:38:11 PM 46.9544 -115.4500 96° East 516 594 41,000  Level Salt Lake Center
Thu 04:38:43 PM 46.9469 -115.3658 97° East 517 595 41,000  Level Seattle Center
Thu 04:39:44 PM 46.9292 -115.1594 97° East 517 595 41,000  Level Seattle Center
Thu 04:40:45 PM 46.9111 -114.9500 97° East 520 598 41,000  Level Seattle Center
Thu 04:41:16 PM 46.8997 -114.8236 97° East 521 600 41,000  Level Salt Lake Center
Thu 04:42:17 PM 46.8814 -114.6156 97° East 520 598 41,000  Level Salt Lake Center
Thu 04:43:19 PM 46.8628 -114.4075 97° East 519 597 41,000  Level Salt Lake Center
Thu 04:44:20 PM 46.8422 -114.1992 98° East 521 600 41,000  Level Salt Lake Center
Thu 04:45:22 PM 46.8178 -113.9486 98° East 523 602 41,000  Level Salt Lake Center
Thu 04:46:24 PM 46.7975 -113.7403 98° East 523 602 41,000  Level Salt Lake Center
Thu 04:47:25 PM 46.7778 -113.5314 98° East 524 603 41,000  Level Salt Lake Center
Thu 04:48:27 PM 46.7567 -113.3239 98° East 520 598 41,000  Level Salt Lake Center
Thu 04:49:28 PM 46.7350 -113.1175 99° East 519 597 41,000  Level Salt Lake Center
Thu 04:50:30 PM 46.7100 -112.8758 98° East 524 603 41,000  Level Salt Lake Center
Thu 04:51:32 PM 46.6881 -112.6703 99° East 517 595 41,000  Level Salt Lake Center
Thu 04:52:33 PM 46.6644 -112.4642 99° East 518 596 41,000  Level Salt Lake Center
Thu 04:53:35 PM 46.6414 -112.2578 99° East 520 598 41,000  Level Salt Lake Center
Thu 04:54:36 PM 46.6181 -112.0525 99° East 518 596 41,000  Level Salt Lake Center
Thu 04:55:38 PM 46.6056 -111.8417 95° East 525 604 41,000  Level Salt Lake Center
Thu 04:56:40 PM 46.6019 -111.6269 91° East 531 611 41,000  Level Salt Lake Center
Thu 04:57:41 PM 46.5978 -111.3669 91° East 539 620 41,000  Level Salt Lake Center
Thu 04:58:43 PM 46.5942 -111.1533 91° East 531 611 41,000  Level Salt Lake Center
Thu 04:59:44 PM 46.5906 -110.9472 91° East 526 605 41,000  Level Salt Lake Center
Thu 05:00:46 PM 46.5858 -110.7322 92° East 533 613 41,000  Level Salt Lake Center
Thu 05:01:47 PM 46.5811 -110.5044 92° East 528 608 41,000  Level Salt Lake Center
Thu 05:02:49 PM 46.5756 -110.2994 92° East 529 609 41,000  Level Salt Lake Center
Thu 05:03:50 PM 46.5694 -110.0583 92° East 534 615 41,000  Level Salt Lake Center
Thu 05:04:52 PM 46.5636 -109.8528 92° East 533 613 41,000  Level Salt Lake Center
Thu 05:05:53 PM 46.5572 -109.6131 92° East 533 613 41,000  Level Salt Lake Center
Thu 05:06:55 PM 46.5506 -109.4047 93° East 539 620 41,000  Level Salt Lake Center
Thu 05:07:56 PM 46.5431 -109.1611 92° East 539 620 41,000  Level Salt Lake Center
Thu 05:08:58 PM 46.5344 -108.9581 93° East 529 609 41,000  Level Salt Lake Center
Thu 05:10:00 PM 46.5269 -108.7569 93° East 523 602 41,000  Level Salt Lake Center
Thu 05:11:01 PM 46.5172 -108.5167 93° East 533 613 41,000  Level Salt Lake Center
Thu 05:12:03 PM 46.5086 -108.3117 93° East 532 612 41,000  Level Salt Lake Center
Thu 05:13:04 PM 46.4972 -108.0739 94° East 529 609 41,000  Level Salt Lake Center
Thu 05:14:06 PM 46.4886 -107.8669 93° East 535 616 41,000  Level Salt Lake Center
Thu 05:15:07 PM 46.4783 -107.6631 94° East 531 611 41,000  Level Salt Lake Center
Thu 05:16:09 PM 46.4672 -107.4253 94° East 530 610 41,000  Level Salt Lake Center
Thu 05:17:11 PM 46.4567 -107.2206 94° East 530 610 41,000  Level Salt Lake Center
Thu 05:18:12 PM 46.4433 -106.9817 95° East 531 611 41,000  Level Salt Lake Center
Thu 05:19:14 PM 46.4322 -106.7800 94° East 529 609 41,000  Level Salt Lake Center
Thu 05:20:16 PM 46.4186 -106.5744 95° East 532 612 41,000  Level Salt Lake Center
Thu 05:21:17 PM 46.4047 -106.3394 95° East 528 608 41,000  Level Salt Lake Center
Thu 05:22:19 PM 46.3919 -106.1386 95° East 524 603 41,000  Level Salt Lake Center
Thu 05:23:21 PM 46.3764 -105.9031 95° East 526 605 41,000  Level Salt Lake Center
Thu 05:24:23 PM 46.3569 -105.7036 98° East 524 603 41,000  Level Salt Lake Center
Thu 05:25:24 PM 46.3333 -105.4717 98° East 522 601 41,000  Level Salt Lake Center
Thu 05:26:26 PM 46.3136 -105.2733 98° East 521 600 41,000  Level Salt Lake Center
Thu 05:27:28 PM 46.2958 -105.0742 97° East 522 601 41,000  Level Salt Lake Center
Thu 05:28:30 PM 46.2731 -104.8383 98° East 527 606 41,000  Level Salt Lake Center
Thu 05:29:31 PM 46.2511 -104.6400 99° East 525 604 41,000  Level Salt Lake Center
Thu 05:30:33 PM 46.2317 -104.4400 98° East 519 597 41,000  Level Salt Lake Center
Thu 05:31:35 PM 46.2092 -104.2325 99° East 522 601 41,000  Level Salt Lake Center
Thu 05:32:37 PM 46.1825 -103.9831 99° East 526 605 41,000  Level Salt Lake Center
Thu 05:33:39 PM 46.1594 -103.7778 99° East 524 603 41,000  Level Salt Lake Center
Thu 05:34:41 PM 46.1367 -103.5719 99° East 524 603 41,000  Level Salt Lake Center
Thu 05:35:43 PM 46.1136 -103.3661 99° East 524 603 41,000  Level Salt Lake Center
Thu 05:36:14 PM 46.1003 -103.2531 100° East 513 590 41,000  Level Minneapolis Center
Thu 05:37:16 PM 46.0772 -103.0525 99° East 511 588 41,000  Level Minneapolis Center
Thu 05:38:19 PM 46.0531 -102.8519 100° East 511 588 41,000  Level Minneapolis Center
Thu 05:39:21 PM 46.0253 -102.6253 100° East 513 590 41,000  Level Minneapolis Center
Thu 05:40:23 PM 45.9997 -102.4225 100° East 515 593 41,000  Level Minneapolis Center
Thu 05:41:25 PM 45.9744 -102.2186 100° East 517 595 41,000  Level Minneapolis Center
Thu 05:42:27 PM 45.9464 -102.0150 101° East 519 597 41,000  Level Minneapolis Center
Thu 05:43:29 PM 45.9217 -101.8106 100° East 519 597 41,000  Level Minneapolis Center
Thu 05:44:31 PM 45.8897 -101.5714 101° East 512 589 41,000  Level Minneapolis Center
Thu 05:45:33 PM 45.8619 -101.3694 101° East 513 590 41,000  Level Minneapolis Center
Thu 05:46:35 PM 45.8347 -101.1667 101° East 516 594 41,000  Level Minneapolis Center
Thu 05:47:37 PM 45.8106 -100.9628 100° East 516 594 41,000  Level Minneapolis Center
Thu 05:48:39 PM 45.7822 -100.7633 101° East 512 589 41,000  Level Minneapolis Center
Thu 05:49:41 PM 45.7539 -100.5639 101° East 511 588 41,000 484 Level Minneapolis Center
Thu 05:50:43 PM 45.7192 -100.3231 102° East 513 590 42,000 912 Climbing Minneapolis Center
Thu 05:51:46 PM 45.6892 -100.1200 102° East 518 596 42,900 912 Climbing Minneapolis Center
Thu 05:52:48 PM 45.6594 -99.9167 102° East 519 597 43,900 1,016 Climbing Minneapolis Center
Thu 05:53:50 PM 45.6292 -99.7158 102° East 515 593 45,000 537 Climbing Minneapolis Center
Thu 05:54:51 PM 45.6044 -99.5528 102° East 518 596 45,000  Level Minneapolis Center
Thu 05:55:54 PM 45.5675 -99.3058 102° East 524 603 45,000  Level Minneapolis Center
Thu 05:56:56 PM 45.5364 -99.1022 102° East 525 604 45,000  Level Minneapolis Center
Thu 05:57:58 PM 45.5025 -98.8953 103° East 530 610 45,000  Level Minneapolis Center
Thu 05:59:00 PM 45.4636 -98.6517 103° East 526 605 45,000  Level Minneapolis Center
Thu 06:00:02 PM 45.4289 -98.4456 103° East 531 611 45,000  Level Minneapolis Center
Thu 06:01:05 PM 45.3872 -98.2456 106° East 529 609 45,000  Level Minneapolis Center
Thu 06:02:07 PM 45.3250 -98.0328 113° Southeast 528 608 45,000  Level Minneapolis Center
Thu 06:03:09 PM 45.2711 -97.8392 112° Southeast 528 608 45,000  Level Minneapolis Center
Thu 06:04:11 PM 45.2164 -97.6450 112° Southeast 531 611 45,000  Level Minneapolis Center
Thu 06:05:13 PM 45.1608 -97.4514 112° Southeast 531 611 45,000  Level Minneapolis Center
Thu 06:06:15 PM 45.1058 -97.2572 112° Southeast 532 612 45,000  Level Minneapolis Center
Thu 06:07:17 PM 45.0503 -97.0661 112° Southeast 527 606 45,000  Level Minneapolis Center
Thu 06:08:19 PM 44.9833 -96.8369 112° Southeast 525 604 45,000  Level Minneapolis Center
Thu 06:09:21 PM 44.9286 -96.6486 112° Southeast 520 598 45,000  Level Minneapolis Center
Thu 06:10:23 PM 44.8728 -96.4611 113° Southeast 518 596 45,000  Level Minneapolis Center
Thu 06:11:25 PM 44.8158 -96.2736 113° Southeast 519 597 45,000  Level Minneapolis Center
Thu 06:12:28 PM 44.7464 -96.0944 119° Southeast 520 598 45,000  Level Minneapolis Center
Thu 06:13:30 PM 44.6739 -95.9189 120° Southeast 518 596 45,000  Level Minneapolis Center
Thu 06:14:32 PM 44.5997 -95.7422 120° Southeast 520 598 45,000  Level Minneapolis Center
Thu 06:15:34 PM 44.5114 -95.5303 120° Southeast 522 601 45,000  Level Minneapolis Center
Thu 06:16:36 PM 44.4367 -95.3544 121° Southeast 522 601 45,000  Level Minneapolis Center
Thu 06:17:50 PM 44.3606 -95.1789 121° Southeast 525 604 45,000  Level Minneapolis Center
Thu 06:18:52 PM 44.2728 -94.9717 121° Southeast 516 594 45,000  Level Minneapolis Center
Thu 06:19:54 PM 44.2136 -94.8342 121° Southeast 515 593 45,000  Level Minneapolis Center
Thu 06:20:56 PM 44.1406 -94.6603 120° Southeast 517 595 45,000  Level Minneapolis Center
Thu 06:21:59 PM 44.0333 -94.4167 121° Southeast 526 605 45,000  Level Minneapolis Center
Thu 06:23:01 PM 43.9564 -94.2433 122° Southeast 527 606 45,000  Level Minneapolis Center
Thu 06:24:03 PM 43.8861 -94.0844 121° Southeast 527 606 45,000  Level Minneapolis Center
Thu 06:25:04 PM 43.8264 -93.9489 121° Southeast 522 601 45,000  Level Minneapolis Center
Thu 06:26:07 PM 43.7217 -93.7128 121° Southeast 519 597 45,000  Level Minneapolis Center
Thu 06:27:09 PM 43.6458 -93.5433 122° Southeast 521 600 45,000  Level Minneapolis Center
Thu 06:28:11 PM 43.5689 -93.3753 122° Southeast 522 601 45,000  Level Minneapolis Center
Thu 06:29:13 PM 43.4900 -93.1989 122° Southeast 524 603 45,000 -194 Level Minneapolis Center
Thu 06:30:15 PM 43.4117 -93.0300 123° Southeast 527 606 44,600 -1,251 Descending Minneapolis Center
Thu 06:32:20 PM 43.2489 -92.6761 122° Southeast 502 578 41,100 -1,572 Descending Minneapolis Center
Thu 06:33:22 PM 43.1739 -92.5144 122° Southeast 505 581 39,700 -1,306 Descending Minneapolis Center
Thu 06:34:24 PM 43.0986 -92.3542 123° Southeast 505 581 38,400 -1,355 Descending Minneapolis Center
Thu 06:35:26 PM 43.0194 -92.1906 123° Southeast 516 594 36,900 -1,548 Descending Minneapolis Center
Thu 06:36:28 PM 42.9014 -92.0172 133° Southeast 526 605 35,200 -919 Descending Minneapolis Center
Thu 06:37:30 PM 42.8000 -91.8853 136° Southeast 521 600 35,000 -97 Descending Minneapolis Center
Thu 06:38:32 PM 42.7003 -91.7561 136° Southeast 515 593 35,000  Level Minneapolis Center
Thu 06:39:34 PM 42.6000 -91.6247 136° Southeast 519 597 35,000 -581 Level Minneapolis Center
Thu 06:40:36 PM 42.4797 -91.4681 136° Southeast 513 590 33,800 -1,742 Descending Minneapolis Center
Thu 06:41:38 PM 42.3781 -91.3369 136° Southeast 511 588 31,400 -2,710 Descending Minneapolis Center
Thu 06:42:40 PM 42.2783 -91.2069 136° Southeast 508 585 28,200 -3,048 Descending Minneapolis Center
Thu 06:43:42 PM 42.1747 -91.0747 137° Southeast 488 562 25,100 -1,853 Descending Minneapolis Center
Thu 06:44:56 PM 42.0603 -90.9275 136° Southeast 447 514 24,000 -971 Descending Chicago Center
Thu 06:45:58 PM 41.9711 -90.8167 137° Southeast 442 509 22,900 -1,258 Descending Chicago Center
Thu 06:47:00 PM 41.8847 -90.7064 136° Southeast 434 499 21,400 -919 Descending Chicago Center
Thu 06:48:02 PM 41.8011 -90.6008 137° Southeast 419 482 21,000 -726 Descending Chicago Center
Thu 06:49:04 PM 41.7153 -90.4936 137° Southeast 425 489 19,900 -1,248 Descending Chicago Center
Thu 06:50:07 PM 41.6278 -90.3514 129° Southeast 414 476 18,400 -1,344 Descending Chicago Center
Thu 06:51:09 PM 41.5572 -90.2328 128° Southeast 409 471 17,100 -1,210 Descending Chicago Center
Thu 06:52:11 PM 41.4869 -90.1194 130° Southeast 397 457 15,900 -1,161 Descending Chicago Center
Thu 06:53:13 PM 41.4189 -90.0064 129° Southeast 391 450 14,700 -1,161 Descending Chicago Center
Thu 06:54:15 PM 41.3786 -89.8811 113° Southeast 379 436 13,500 -871 Descending Chicago Center
Thu 06:55:17 PM 41.3922 -89.7428 82° East 376 433 12,900 -968 Descending Chicago Center
Thu 06:56:19 PM 41.4111 -89.5789 81° East 373 429 11,500 -1,306 Descending Chicago Center
Thu 06:57:21 PM 41.4261 -89.4442 82° East 368 423 10,200 -774 Descending Chicago Center
Thu 06:58:23 PM 41.4406 -89.3208 81° East 340 391 9,900 -145 Descending Chicago Center
Thu 06:59:25 PM 41.4531 -89.2056 82° East 319 367 9,900 -484 Level Chicago Center
Thu 07:00:27 PM 41.4639 -89.0942 83° East 306 352 8,900 -968 Descending Chicago Center
Thu 07:01:29 PM 41.4756 -88.9911 81° East 289 333 7,900 -1,056 Descending Chicago Center
Thu 07:02:32 PM 41.4886 -88.8656 82° East 287 330 6,700 -912 Descending Chicago Center
Thu 07:03:34 PM 41.5000 -88.7631 82° East 283 326 6,000 -339 Descending Chicago Center
Thu 07:04:36 PM 41.5106 -88.6611 82° East 280 322 6,000  Level Chicago Center
Thu 07:05:38 PM 41.5225 -88.5600 81° East 278 320 6,000  Level Chicago Center
Thu 07:06:40 PM 41.5378 -88.4594 78° East 277 319 6,000 -387 Level Chicago Center
Thu 07:07:42 PM 41.5531 -88.3594 78° East 277 319 5,200 -484 Descending Chicago Center
Thu 07:08:44 PM 41.5700 -88.2417 79° East 270 311 5,000 -97 Descending Chicago Center
Thu 07:09:46 PM 41.5850 -88.1436 78° East 268 308 5,000  Level Chicago Center
Thu 07:10:48 PM 41.5978 -88.0486 80° East 261 300 5,000 -48 Level Chicago Center
Thu 07:11:50 PM 41.6189 -87.9653 71° East 247 284 4,900 -581 Descending Chicago Center
Thu 07:12:52 PM 41.6633 -87.9033 46° Northeast 238 274 3,800 -1,140 Descending Chicago Center
Thu 07:13:30 PM 41.7000 -87.8667 37° Northeast 186 214 3,000 -1,109 Descending Chicago TRACON
Thu 07:14:24 PM 41.7167 -87.8333 56° Northeast 166 191 2,100 -835 Descending Chicago TRACON
Thu 07:15:25 PM 41.7500 -87.8000 37° Northeast 119 137 1,400 -459 Descending Chicago TRACON
Thu 07:17:01 PM 41.7853 -87.7575 42° Northeast 131 151 900 -313 Descending Chicago Center

Login

Don't have an account? Register now (free) for customized features, flight alerts, and more!